Alfarata, Pennsylvania
Current Conditions -  °F | °C
As of 8:53 AM on Thursday 27 Nov 2014 (Local Time) from KUNV Reporting Station
Light Snow Light Snow  
Wind Chill: 30°   Ceiling: 1800
Heat Index: 30°   Visibility: 3mi
Dew Point: 28°   Wind: 0mph
Humidity: 93%   Direction: NA
Pressure: 30.02"   Gusts: NA
Location:  40.7125°N, 77.3707°W
Report Text: KUNV 271353Z 00000KT 3SM -SN BR OVC018 M01/M02 A3002
Loading
Personal Weather Stations






























Interactive Weather Map New forecast layout! Learn more

10-Day Weather Forecast

Advertisements
Track Severe Weather on mobile